sensor_id;sensor_type;location;lat;lon;timestamp;P1;durP1;ratioP1;P2;durP2;ratioP2
38162;SDS011;23977;53.078;18.248;2023-08-06T00:00:24;6.30;;;4.55;;
38162;SDS011;23977;53.078;18.248;2023-08-06T00:03:10;6.82;;;4.40;;
38162;SDS011;23977;53.078;18.248;2023-08-06T00:05:35;5.45;;;4.07;;
38162;SDS011;23977;53.078;18.248;2023-08-06T00:08:01;5.32;;;4.60;;
38162;SDS011;23977;53.078;18.248;2023-08-06T00:10:27;6.35;;;4.80;;
38162;SDS011;23977;53.078;18.248;2023-08-06T00:12:53;5.68;;;4.40;;
38162;SDS011;23977;53.078;18.248;2023-08-06T00:15:19;5.53;;;4.35;;
38162;SDS011;23977;53.078;18.248;2023-08-06T00:17:44;6.20;;;4.50;;
38162;SDS011;23977;53.078;18.248;2023-08-06T00:20:10;5.25;;;3.92;;
38162;SDS011;23977;53.078;18.248;2023-08-06T00:22:36;5.95;;;4.50;;
38162;SDS011;23977;53.078;18.248;2023-08-06T00:25:03;6.07;;;4.20;;
38162;SDS011;23977;53.078;18.248;2023-08-06T00:27:30;5.57;;;3.92;;
38162;SDS011;23977;53.078;18.248;2023-08-06T00:29:55;6.18;;;4.10;;
38162;SDS011;23977;53.078;18.248;2023-08-06T00:32:21;6.35;;;4.32;;
38162;SDS011;23977;53.078;18.248;2023-08-06T00:34:47;7.13;;;4.55;;
38162;SDS011;23977;53.078;18.248;2023-08-06T00:37:17;6.40;;;4.70;;
38162;SDS011;23977;53.078;18.248;2023-08-06T00:39:43;7.72;;;5.15;;
38162;SDS011;23977;53.078;18.248;2023-08-06T00:42:09;7.47;;;4.85;;
38162;SDS011;23977;53.078;18.248;2023-08-06T00:44:36;5.70;;;4.30;;
38162;SDS011;23977;53.078;18.248;2023-08-06T00:47:02;8.15;;;4.80;;
38162;SDS011;23977;53.078;18.248;2023-08-06T00:49:28;6.07;;;4.25;;
38162;SDS011;23977;53.078;18.248;2023-08-06T00:51:54;5.63;;;4.15;;
38162;SDS011;23977;53.078;18.248;2023-08-06T00:54:21;6.88;;;4.25;;
38162;SDS011;23977;53.078;18.248;2023-08-06T00:56:47;5.88;;;4.10;;
38162;SDS011;23977;53.078;18.248;2023-08-06T00:59:13;6.57;;;4.38;;
38162;SDS011;23977;53.078;18.248;2023-08-06T01:01:39;7.63;;;4.43;;
38162;SDS011;23977;53.078;18.248;2023-08-06T01:04:05;6.35;;;4.55;;
38162;SDS011;23977;53.078;18.248;2023-08-06T01:12:24;7.53;;;5.15;;
38162;SDS011;23977;53.078;18.248;2023-08-06T01:15:06;8.35;;;5.38;;
38162;SDS011;23977;53.078;18.248;2023-08-06T01:17:40;7.65;;;4.97;;
38162;SDS011;23977;53.078;18.248;2023-08-06T01:20:06;7.18;;;4.85;;
38162;SDS011;23977;53.078;18.248;2023-08-06T01:22:32;9.05;;;5.53;;
38162;SDS011;23977;53.078;18.248;2023-08-06T01:24:57;7.00;;;5.55;;
38162;SDS011;23977;53.078;18.248;2023-08-06T01:27:33;9.30;;;5.78;;
38162;SDS011;23977;53.078;18.248;2023-08-06T01:30:12;7.97;;;5.55;;
38162;SDS011;23977;53.078;18.248;2023-08-06T01:32:42;7.68;;;5.70;;
38162;SDS011;23977;53.078;18.248;2023-08-06T01:35:10;8.18;;;5.82;;
38162;SDS011;23977;53.078;18.248;2023-08-06T01:37:37;7.78;;;5.75;;
38162;SDS011;23977;53.078;18.248;2023-08-06T01:40:09;9.30;;;5.70;;
38162;SDS011;23977;53.078;18.248;2023-08-06T01:42:36;8.25;;;5.75;;
38162;SDS011;23977;53.078;18.248;2023-08-06T01:45:01;9.68;;;5.30;;
38162;SDS011;23977;53.078;18.248;2023-08-06T01:47:27;6.80;;;5.50;;
38162;SDS011;23977;53.078;18.248;2023-08-06T01:49:53;8.15;;;5.72;;
38162;SDS011;23977;53.078;18.248;2023-08-06T01:52:18;7.93;;;5.93;;
38162;SDS011;23977;53.078;18.248;2023-08-06T01:54:44;9.60;;;6.00;;
38162;SDS011;23977;53.078;18.248;2023-08-06T01:57:10;7.40;;;5.82;;
38162;SDS011;23977;53.078;18.248;2023-08-06T01:59:35;8.73;;;5.80;;
38162;SDS011;23977;53.078;18.248;2023-08-06T02:02:01;9.93;;;6.30;;
38162;SDS011;23977;53.078;18.248;2023-08-06T02:04:26;8.07;;;5.97;;
38162;SDS011;23977;53.078;18.248;2023-08-06T02:06:52;6.60;;;5.47;;
38162;SDS011;23977;53.078;18.248;2023-08-06T02:09:17;7.88;;;5.72;;
38162;SDS011;23977;53.078;18.248;2023-08-06T02:11:43;6.80;;;5.55;;
38162;SDS011;23977;53.078;18.248;2023-08-06T02:14:09;7.45;;;5.47;;
38162;SDS011;23977;53.078;18.248;2023-08-06T02:16:34;8.45;;;5.70;;
38162;SDS011;23977;53.078;18.248;2023-08-06T02:19:00;6.63;;;4.75;;
38162;SDS011;23977;53.078;18.248;2023-08-06T02:21:25;6.15;;;4.93;;
38162;SDS011;23977;53.078;18.248;2023-08-06T02:23:51;6.78;;;4.85;;
38162;SDS011;23977;53.078;18.248;2023-08-06T02:26:17;7.30;;;4.97;;
38162;SDS011;23977;53.078;18.248;2023-08-06T02:28:42;6.50;;;4.78;;
38162;SDS011;23977;53.078;18.248;2023-08-06T02:31:08;6.88;;;4.93;;
38162;SDS011;23977;53.078;18.248;2023-08-06T02:33:33;8.05;;;4.97;;
38162;SDS011;23977;53.078;18.248;2023-08-06T02:35:59;6.60;;;5.20;;
38162;SDS011;23977;53.078;18.248;2023-08-06T02:38:31;8.98;;;5.20;;
38162;SDS011;23977;53.078;18.248;2023-08-06T02:40:57;8.77;;;5.78;;
38162;SDS011;23977;53.078;18.248;2023-08-06T02:43:23;7.65;;;5.28;;
38162;SDS011;23977;53.078;18.248;2023-08-06T02:45:49;6.72;;;5.22;;
38162;SDS011;23977;53.078;18.248;2023-08-06T02:48:14;8.25;;;5.32;;
38162;SDS011;23977;53.078;18.248;2023-08-06T02:50:40;7.90;;;5.10;;
38162;SDS011;23977;53.078;18.248;2023-08-06T02:53:07;8.25;;;5.70;;
38162;SDS011;23977;53.078;18.248;2023-08-06T02:55:34;7.70;;;5.03;;
38162;SDS011;23977;53.078;18.248;2023-08-06T02:58:03;8.98;;;5.18;;
38162;SDS011;23977;53.078;18.248;2023-08-06T03:00:28;5.68;;;4.88;;
38162;SDS011;23977;53.078;18.248;2023-08-06T03:02:54;7.60;;;5.00;;
38162;SDS011;23977;53.078;18.248;2023-08-06T03:05:20;6.65;;;4.72;;
38162;SDS011;23977;53.078;18.248;2023-08-06T03:07:45;8.52;;;5.22;;
38162;SDS011;23977;53.078;18.248;2023-08-06T03:10:12;8.35;;;5.00;;
38162;SDS011;23977;53.078;18.248;2023-08-06T03:12:38;7.95;;;4.57;;
38162;SDS011;23977;53.078;18.248;2023-08-06T03:15:04;5.90;;;4.53;;
38162;SDS011;23977;53.078;18.248;2023-08-06T03:17:30;6.75;;;4.22;;
38162;SDS011;23977;53.078;18.248;2023-08-06T03:19:55;8.27;;;4.50;;
38162;SDS011;23977;53.078;18.248;2023-08-06T03:22:21;5.35;;;3.95;;
38162;SDS011;23977;53.078;18.248;2023-08-06T03:24:49;6.03;;;4.43;;
38162;SDS011;23977;53.078;18.248;2023-08-06T03:27:15;6.65;;;4.25;;
38162;SDS011;23977;53.078;18.248;2023-08-06T03:29:41;5.15;;;4.32;;
38162;SDS011;23977;53.078;18.248;2023-08-06T03:32:07;7.07;;;4.18;;
38162;SDS011;23977;53.078;18.248;2023-08-06T03:34:33;5.95;;;4.13;;
38162;SDS011;23977;53.078;18.248;2023-08-06T03:36:58;7.00;;;4.57;;
38162;SDS011;23977;53.078;18.248;2023-08-06T03:39:24;6.15;;;4.45;;
38162;SDS011;23977;53.078;18.248;2023-08-06T03:41:49;6.50;;;4.40;;
38162;SDS011;23977;53.078;18.248;2023-08-06T03:44:15;5.97;;;4.07;;
38162;SDS011;23977;53.078;18.248;2023-08-06T03:46:40;6.05;;;4.20;;
38162;SDS011;23977;53.078;18.248;2023-08-06T03:49:06;6.25;;;3.72;;
38162;SDS011;23977;53.078;18.248;2023-08-06T03:51:31;5.10;;;3.70;;
38162;SDS011;23977;53.078;18.248;2023-08-06T03:53:57;5.88;;;3.70;;
38162;SDS011;23977;53.078;18.248;2023-08-06T03:56:23;6.20;;;4.15;;
38162;SDS011;23977;53.078;18.248;2023-08-06T03:58:48;4.65;;;3.33;;
38162;SDS011;23977;53.078;18.248;2023-08-06T04:01:14;5.05;;;3.67;;
38162;SDS011;23977;53.078;18.248;2023-08-06T04:03:40;5.43;;;3.95;;
38162;SDS011;23977;53.078;18.248;2023-08-06T04:06:06;5.97;;;3.90;;
38162;SDS011;23977;53.078;18.248;2023-08-06T04:08:32;5.03;;;4.00;;
38162;SDS011;23977;53.078;18.248;2023-08-06T04:10:58;6.00;;;3.67;;
38162;SDS011;23977;53.078;18.248;2023-08-06T04:13:23;4.25;;;3.38;;
38162;SDS011;23977;53.078;18.248;2023-08-06T04:15:49;5.43;;;3.78;;
38162;SDS011;23977;53.078;18.248;2023-08-06T04:18:15;4.47;;;3.20;;
38162;SDS011;23977;53.078;18.248;2023-08-06T04:20:42;4.30;;;3.45;;
38162;SDS011;23977;53.078;18.248;2023-08-06T04:23:10;4.35;;;3.30;;
38162;SDS011;23977;53.078;18.248;2023-08-06T04:25:35;4.68;;;3.20;;
38162;SDS011;23977;53.078;18.248;2023-08-06T04:28:01;3.92;;;2.67;;
38162;SDS011;23977;53.078;18.248;2023-08-06T04:30:26;3.65;;;2.75;;
38162;SDS011;23977;53.078;18.248;2023-08-06T04:32:52;4.25;;;2.88;;
38162;SDS011;23977;53.078;18.248;2023-08-06T04:35:17;3.42;;;2.80;;
38162;SDS011;23977;53.078;18.248;2023-08-06T04:37:43;12.02;;;8.63;;
38162;SDS011;23977;53.078;18.248;2023-08-06T04:40:09;8.50;;;6.40;;
38162;SDS011;23977;53.078;18.248;2023-08-06T04:42:35;4.20;;;2.83;;
38162;SDS011;23977;53.078;18.248;2023-08-06T04:45:01;5.00;;;2.45;;
38162;SDS011;23977;53.078;18.248;2023-08-06T04:47:28;4.63;;;2.40;;
38162;SDS011;23977;53.078;18.248;2023-08-06T04:49:53;4.32;;;2.75;;
38162;SDS011;23977;53.078;18.248;2023-08-06T04:52:19;5.10;;;3.00;;
38162;SDS011;23977;53.078;18.248;2023-08-06T04:54:45;4.43;;;2.70;;
38162;SDS011;23977;53.078;18.248;2023-08-06T04:57:10;3.38;;;2.78;;
38162;SDS011;23977;53.078;18.248;2023-08-06T04:59:36;4.45;;;3.30;;
38162;SDS011;23977;53.078;18.248;2023-08-06T05:02:01;4.57;;;3.80;;
38162;SDS011;23977;53.078;18.248;2023-08-06T05:04:27;5.00;;;2.95;;
38162;SDS011;23977;53.078;18.248;2023-08-06T05:06:53;3.28;;;2.97;;
38162;SDS011;23977;53.078;18.248;2023-08-06T05:09:19;3.88;;;3.03;;
38162;SDS011;23977;53.078;18.248;2023-08-06T05:11:46;4.00;;;3.10;;
38162;SDS011;23977;53.078;18.248;2023-08-06T05:14:12;5.63;;;3.65;;
38162;SDS011;23977;53.078;18.248;2023-08-06T05:16:37;4.15;;;3.30;;
38162;SDS011;23977;53.078;18.248;2023-08-06T05:19:03;5.22;;;3.55;;
38162;SDS011;23977;53.078;18.248;2023-08-06T05:21:28;4.55;;;3.35;;
38162;SDS011;23977;53.078;18.248;2023-08-06T05:23:54;6.10;;;3.75;;
38162;SDS011;23977;53.078;18.248;2023-08-06T05:26:20;6.90;;;4.30;;
38162;SDS011;23977;53.078;18.248;2023-08-06T05:28:45;6.63;;;4.32;;
38162;SDS011;23977;53.078;18.248;2023-08-06T05:31:11;6.18;;;4.60;;
38162;SDS011;23977;53.078;18.248;2023-08-06T05:33:37;6.20;;;5.13;;
38162;SDS011;23977;53.078;18.248;2023-08-06T05:36:03;6.00;;;4.72;;
38162;SDS011;23977;53.078;18.248;2023-08-06T05:38:29;5.38;;;4.85;;
38162;SDS011;23977;53.078;18.248;2023-08-06T05:40:55;6.82;;;5.55;;
38162;SDS011;23977;53.078;18.248;2023-08-06T05:43:21;6.50;;;5.70;;
38162;SDS011;23977;53.078;18.248;2023-08-06T05:45:49;7.00;;;5.32;;
38162;SDS011;23977;53.078;18.248;2023-08-06T05:48:15;6.38;;;5.47;;
38162;SDS011;23977;53.078;18.248;2023-08-06T05:50:41;6.85;;;5.32;;
38162;SDS011;23977;53.078;18.248;2023-08-06T05:53:07;8.00;;;5.53;;
38162;SDS011;23977;53.078;18.248;2023-08-06T05:55:33;7.80;;;5.28;;
38162;SDS011;23977;53.078;18.248;2023-08-06T05:57:59;8.88;;;5.80;;
38162;SDS011;23977;53.078;18.248;2023-08-06T06:00:25;7.47;;;5.35;;
38162;SDS011;23977;53.078;18.248;2023-08-06T06:02:50;7.32;;;5.45;;
38162;SDS011;23977;53.078;18.248;2023-08-06T06:05:16;5.80;;;5.20;;
38162;SDS011;23977;53.078;18.248;2023-08-06T06:07:42;6.18;;;4.63;;
38162;SDS011;23977;53.078;18.248;2023-08-06T06:10:08;6.30;;;5.28;;
38162;SDS011;23977;53.078;18.248;2023-08-06T06:12:33;6.40;;;4.63;;
38162;SDS011;23977;53.078;18.248;2023-08-06T06:14:59;6.70;;;4.80;;
38162;SDS011;23977;53.078;18.248;2023-08-06T06:17:26;6.38;;;4.65;;
38162;SDS011;23977;53.078;18.248;2023-08-06T06:19:52;5.75;;;4.65;;
38162;SDS011;23977;53.078;18.248;2023-08-06T06:22:18;6.85;;;4.70;;
38162;SDS011;23977;53.078;18.248;2023-08-06T06:24:44;6.13;;;5.15;;
38162;SDS011;23977;53.078;18.248;2023-08-06T06:27:09;5.53;;;4.82;;
38162;SDS011;23977;53.078;18.248;2023-08-06T06:29:35;4.97;;;4.40;;
38162;SDS011;23977;53.078;18.248;2023-08-06T06:32:00;7.93;;;4.85;;
38162;SDS011;23977;53.078;18.248;2023-08-06T06:34:26;5.65;;;4.53;;
38162;SDS011;23977;53.078;18.248;2023-08-06T06:36:52;5.13;;;4.22;;
38162;SDS011;23977;53.078;18.248;2023-08-06T06:39:17;5.93;;;4.05;;
38162;SDS011;23977;53.078;18.248;2023-08-06T06:41:43;5.75;;;3.97;;
38162;SDS011;23977;53.078;18.248;2023-08-06T06:44:09;6.30;;;3.97;;
38162;SDS011;23977;53.078;18.248;2023-08-06T06:46:35;6.30;;;3.92;;
38162;SDS011;23977;53.078;18.248;2023-08-06T06:49:01;4.25;;;3.35;;
38162;SDS011;23977;53.078;18.248;2023-08-06T06:51:27;5.05;;;3.60;;
38162;SDS011;23977;53.078;18.248;2023-08-06T06:53:52;4.47;;;3.65;;
38162;SDS011;23977;53.078;18.248;2023-08-06T06:56:18;5.20;;;3.70;;
38162;SDS011;23977;53.078;18.248;2023-08-06T06:58:45;4.65;;;3.40;;
38162;SDS011;23977;53.078;18.248;2023-08-06T07:01:10;5.45;;;3.17;;
38162;SDS011;23977;53.078;18.248;2023-08-06T07:03:37;5.93;;;3.25;;
38162;SDS011;23977;53.078;18.248;2023-08-06T07:06:02;4.32;;;3.00;;
38162;SDS011;23977;53.078;18.248;2023-08-06T07:08:29;4.38;;;2.97;;
38162;SDS011;23977;53.078;18.248;2023-08-06T07:11:01;3.45;;;2.72;;
38162;SDS011;23977;53.078;18.248;2023-08-06T07:13:28;5.90;;;3.00;;
38162;SDS011;23977;53.078;18.248;2023-08-06T07:15:54;5.68;;;3.42;;
38162;SDS011;23977;53.078;18.248;2023-08-06T07:18:21;4.40;;;3.22;;
38162;SDS011;23977;53.078;18.248;2023-08-06T07:20:48;4.00;;;3.03;;
38162;SDS011;23977;53.078;18.248;2023-08-06T07:23:18;5.28;;;3.60;;
38162;SDS011;23977;53.078;18.248;2023-08-06T07:25:46;3.42;;;3.13;;
38162;SDS011;23977;53.078;18.248;2023-08-06T07:28:12;3.72;;;3.00;;
38162;SDS011;23977;53.078;18.248;2023-08-06T07:30:38;4.82;;;3.70;;
38162;SDS011;23977;53.078;18.248;2023-08-06T07:33:05;4.20;;;3.22;;
38162;SDS011;23977;53.078;18.248;2023-08-06T07:35:30;5.15;;;3.42;;
38162;SDS011;23977;53.078;18.248;2023-08-06T07:37:56;4.38;;;3.50;;
38162;SDS011;23977;53.078;18.248;2023-08-06T07:40:21;5.13;;;3.38;;
38162;SDS011;23977;53.078;18.248;2023-08-06T07:42:47;5.70;;;3.72;;
38162;SDS011;23977;53.078;18.248;2023-08-06T07:45:13;4.75;;;3.40;;
38162;SDS011;23977;53.078;18.248;2023-08-06T07:47:55;4.55;;;3.00;;
38162;SDS011;23977;53.078;18.248;2023-08-06T07:50:20;4.38;;;3.05;;
38162;SDS011;23977;53.078;18.248;2023-08-06T07:52:46;3.75;;;2.92;;
38162;SDS011;23977;53.078;18.248;2023-08-06T07:55:11;4.50;;;3.10;;
38162;SDS011;23977;53.078;18.248;2023-08-06T07:57:37;4.53;;;3.20;;
38162;SDS011;23977;53.078;18.248;2023-08-06T08:00:03;3.53;;;2.72;;
38162;SDS011;23977;53.078;18.248;2023-08-06T08:02:29;4.20;;;2.75;;
38162;SDS011;23977;53.078;18.248;2023-08-06T08:04:55;3.95;;;2.88;;
38162;SDS011;23977;53.078;18.248;2023-08-06T08:07:21;4.55;;;3.15;;
38162;SDS011;23977;53.078;18.248;2023-08-06T08:09:46;4.60;;;2.95;;
38162;SDS011;23977;53.078;18.248;2023-08-06T08:12:13;4.60;;;2.95;;
38162;SDS011;23977;53.078;18.248;2023-08-06T08:14:39;3.63;;;3.03;;
38162;SDS011;23977;53.078;18.248;2023-08-06T08:17:05;4.28;;;3.30;;
38162;SDS011;23977;53.078;18.248;2023-08-06T08:19:31;5.03;;;3.05;;
38162;SDS011;23977;53.078;18.248;2023-08-06T08:21:57;4.18;;;3.03;;
38162;SDS011;23977;53.078;18.248;2023-08-06T08:24:23;3.88;;;3.00;;
38162;SDS011;23977;53.078;18.248;2023-08-06T08:26:53;3.95;;;3.25;;
38162;SDS011;23977;53.078;18.248;2023-08-06T08:29:19;4.90;;;3.70;;
38162;SDS011;23977;53.078;18.248;2023-08-06T08:31:45;4.50;;;3.40;;
38162;SDS011;23977;53.078;18.248;2023-08-06T08:34:13;5.03;;;3.92;;
38162;SDS011;23977;53.078;18.248;2023-08-06T08:36:39;5.05;;;3.63;;
38162;SDS011;23977;53.078;18.248;2023-08-06T08:39:04;5.05;;;3.38;;
38162;SDS011;23977;53.078;18.248;2023-08-06T08:41:30;4.53;;;3.60;;
38162;SDS011;23977;53.078;18.248;2023-08-06T08:43:58;4.65;;;3.90;;
38162;SDS011;23977;53.078;18.248;2023-08-06T08:46:28;6.32;;;4.07;;
38162;SDS011;23977;53.078;18.248;2023-08-06T08:48:55;5.22;;;3.80;;
38162;SDS011;23977;53.078;18.248;2023-08-06T08:51:25;5.72;;;4.18;;
38162;SDS011;23977;53.078;18.248;2023-08-06T08:53:53;5.85;;;4.10;;
38162;SDS011;23977;53.078;18.248;2023-08-06T08:56:21;5.75;;;4.38;;
38162;SDS011;23977;53.078;18.248;2023-08-06T08:58:47;5.80;;;4.60;;
38162;SDS011;23977;53.078;18.248;2023-08-06T09:01:14;6.93;;;4.70;;
38162;SDS011;23977;53.078;18.248;2023-08-06T09:03:40;5.60;;;4.32;;
38162;SDS011;23977;53.078;18.248;2023-08-06T09:06:06;7.88;;;4.88;;
38162;SDS011;23977;53.078;18.248;2023-08-06T09:08:36;5.65;;;4.55;;
38162;SDS011;23977;53.078;18.248;2023-08-06T09:11:08;5.72;;;4.60;;
38162;SDS011;23977;53.078;18.248;2023-08-06T09:13:37;5.80;;;4.50;;
38162;SDS011;23977;53.078;18.248;2023-08-06T09:16:03;5.70;;;4.82;;
38162;SDS011;23977;53.078;18.248;2023-08-06T09:18:29;7.50;;;4.80;;
38162;SDS011;23977;53.078;18.248;2023-08-06T09:20:56;6.05;;;5.10;;
38162;SDS011;23977;53.078;18.248;2023-08-06T09:23:29;6.53;;;4.97;;
38162;SDS011;23977;53.078;18.248;2023-08-06T09:25:56;6.93;;;5.25;;
38162;SDS011;23977;53.078;18.248;2023-08-06T09:28:22;6.25;;;4.90;;
38162;SDS011;23977;53.078;18.248;2023-08-06T09:30:50;6.30;;;4.90;;
38162;SDS011;23977;53.078;18.248;2023-08-06T09:33:18;6.88;;;5.22;;
38162;SDS011;23977;53.078;18.248;2023-08-06T09:35:45;6.55;;;5.13;;
38162;SDS011;23977;53.078;18.248;2023-08-06T09:38:12;5.85;;;4.70;;
38162;SDS011;23977;53.078;18.248;2023-08-06T09:40:39;5.25;;;4.75;;
38162;SDS011;23977;53.078;18.248;2023-08-06T09:43:05;6.47;;;4.82;;
38162;SDS011;23977;53.078;18.248;2023-08-06T09:45:32;5.47;;;4.60;;
38162;SDS011;23977;53.078;18.248;2023-08-06T09:47:59;5.60;;;4.50;;
38162;SDS011;23977;53.078;18.248;2023-08-06T09:50:28;6.38;;;5.00;;
38162;SDS011;23977;53.078;18.248;2023-08-06T09:52:59;5.85;;;4.80;;
38162;SDS011;23977;53.078;18.248;2023-08-06T09:55:26;6.43;;;4.63;;
38162;SDS011;23977;53.078;18.248;2023-08-06T09:57:52;6.22;;;4.63;;
38162;SDS011;23977;53.078;18.248;2023-08-06T10:00:19;5.93;;;4.30;;
38162;SDS011;23977;53.078;18.248;2023-08-06T10:02:48;5.45;;;3.97;;
38162;SDS011;23977;53.078;18.248;2023-08-06T10:05:15;5.68;;;4.97;;
38162;SDS011;23977;53.078;18.248;2023-08-06T10:07:42;5.30;;;4.10;;
38162;SDS011;23977;53.078;18.248;2023-08-06T10:10:10;4.85;;;4.05;;
38162;SDS011;23977;53.078;18.248;2023-08-06T10:12:37;5.93;;;4.50;;
38162;SDS011;23977;53.078;18.248;2023-08-06T10:15:09;5.85;;;4.20;;
38162;SDS011;23977;53.078;18.248;2023-08-06T10:17:37;6.38;;;4.82;;
38162;SDS011;23977;53.078;18.248;2023-08-06T10:20:05;5.93;;;4.60;;
38162;SDS011;23977;53.078;18.248;2023-08-06T10:22:33;5.90;;;4.43;;
38162;SDS011;23977;53.078;18.248;2023-08-06T10:25:00;4.60;;;3.97;;
38162;SDS011;23977;53.078;18.248;2023-08-06T10:27:39;4.60;;;3.88;;
38162;SDS011;23977;53.078;18.248;2023-08-06T10:32:58;4.40;;;3.47;;
38162;SDS011;23977;53.078;18.248;2023-08-06T10:37:57;5.45;;;4.00;;
38162;SDS011;23977;53.078;18.248;2023-08-06T10:40:23;4.85;;;4.10;;
38162;SDS011;23977;53.078;18.248;2023-08-06T10:42:51;5.43;;;3.75;;
38162;SDS011;23977;53.078;18.248;2023-08-06T10:45:17;4.90;;;3.55;;
38162;SDS011;23977;53.078;18.248;2023-08-06T10:47:44;6.18;;;3.90;;
38162;SDS011;23977;53.078;18.248;2023-08-06T10:50:15;4.32;;;3.72;;
38162;SDS011;23977;53.078;18.248;2023-08-06T10:52:46;5.32;;;3.63;;
38162;SDS011;23977;53.078;18.248;2023-08-06T10:55:21;4.78;;;3.85;;
38162;SDS011;23977;53.078;18.248;2023-08-06T10:57:49;4.43;;;3.50;;
38162;SDS011;23977;53.078;18.248;2023-08-06T11:00:15;4.95;;;4.25;;
38162;SDS011;23977;53.078;18.248;2023-08-06T11:02:41;4.63;;;3.78;;
38162;SDS011;23977;53.078;18.248;2023-08-06T11:05:07;4.95;;;3.38;;
38162;SDS011;23977;53.078;18.248;2023-08-06T11:07:34;6.32;;;4.20;;
38162;SDS011;23977;53.078;18.248;2023-08-06T11:10:02;5.85;;;3.80;;
38162;SDS011;23977;53.078;18.248;2023-08-06T11:12:34;7.07;;;4.60;;
38162;SDS011;23977;53.078;18.248;2023-08-06T11:15:01;6.07;;;4.13;;
38162;SDS011;23977;53.078;18.248;2023-08-06T11:17:28;5.70;;;4.82;;
38162;SDS011;23977;53.078;18.248;2023-08-06T11:19:55;8.35;;;5.30;;
38162;SDS011;23977;53.078;18.248;2023-08-06T11:22:21;6.35;;;4.70;;
38162;SDS011;23977;53.078;18.248;2023-08-06T11:24:48;7.22;;;5.50;;
38162;SDS011;23977;53.078;18.248;2023-08-06T11:27:14;9.05;;;5.88;;
38162;SDS011;23977;53.078;18.248;2023-08-06T11:29:41;7.00;;;5.72;;
38162;SDS011;23977;53.078;18.248;2023-08-06T11:32:07;6.85;;;6.13;;
38162;SDS011;23977;53.078;18.248;2023-08-06T11:34:34;8.32;;;6.88;;
38162;SDS011;23977;53.078;18.248;2023-08-06T11:36:59;7.68;;;6.57;;
38162;SDS011;23977;53.078;18.248;2023-08-06T11:39:25;11.05;;;7.15;;
38162;SDS011;23977;53.078;18.248;2023-08-06T11:41:51;9.80;;;7.88;;
38162;SDS011;23977;53.078;18.248;2023-08-06T11:44:21;9.00;;;6.82;;
38162;SDS011;23977;53.078;18.248;2023-08-06T11:46:55;9.32;;;8.20;;
38162;SDS011;23977;53.078;18.248;2023-08-06T11:49:36;11.45;;;8.35;;
38162;SDS011;23977;53.078;18.248;2023-08-06T11:52:13;12.35;;;9.15;;
38162;SDS011;23977;53.078;18.248;2023-08-06T11:54:45;9.75;;;8.75;;
38162;SDS011;23977;53.078;18.248;2023-08-06T11:57:33;10.70;;;8.95;;
38162;SDS011;23977;53.078;18.248;2023-08-06T12:00:04;10.20;;;8.35;;
38162;SDS011;23977;53.078;18.248;2023-08-06T12:02:33;11.18;;;9.23;;
38162;SDS011;23977;53.078;18.248;2023-08-06T12:07:37;11.15;;;9.15;;
38162;SDS011;23977;53.078;18.248;2023-08-06T12:10:04;12.23;;;9.38;;
38162;SDS011;23977;53.078;18.248;2023-08-06T12:12:30;11.90;;;9.80;;
38162;SDS011;23977;53.078;18.248;2023-08-06T12:14:56;12.20;;;10.90;;
38162;SDS011;23977;53.078;18.248;2023-08-06T12:17:22;15.15;;;12.05;;
38162;SDS011;23977;53.078;18.248;2023-08-06T12:19:49;11.63;;;10.18;;
38162;SDS011;23977;53.078;18.248;2023-08-06T12:22:15;15.13;;;11.82;;
38162;SDS011;23977;53.078;18.248;2023-08-06T12:24:42;14.18;;;12.60;;
38162;SDS011;23977;53.078;18.248;2023-08-06T12:27:08;16.00;;;13.10;;
38162;SDS011;23977;53.078;18.248;2023-08-06T12:29:34;17.90;;;14.05;;
38162;SDS011;23977;53.078;18.248;2023-08-06T12:32:00;15.43;;;13.55;;
38162;SDS011;23977;53.078;18.248;2023-08-06T12:34:27;17.58;;;14.35;;
38162;SDS011;23977;53.078;18.248;2023-08-06T12:36:52;18.90;;;13.90;;
38162;SDS011;23977;53.078;18.248;2023-08-06T12:39:18;18.95;;;14.75;;
38162;SDS011;23977;53.078;18.248;2023-08-06T12:41:43;17.27;;;13.15;;
38162;SDS011;23977;53.078;18.248;2023-08-06T12:44:11;17.33;;;13.32;;
38162;SDS011;23977;53.078;18.248;2023-08-06T12:46:37;18.33;;;14.93;;
38162;SDS011;23977;53.078;18.248;2023-08-06T12:49:03;17.70;;;14.02;;
38162;SDS011;23977;53.078;18.248;2023-08-06T12:51:29;16.20;;;13.95;;
38162;SDS011;23977;53.078;18.248;2023-08-06T12:53:56;15.35;;;12.95;;
38162;SDS011;23977;53.078;18.248;2023-08-06T12:56:22;15.27;;;11.88;;
38162;SDS011;23977;53.078;18.248;2023-08-06T12:58:47;13.20;;;11.80;;
38162;SDS011;23977;53.078;18.248;2023-08-06T13:01:13;17.52;;;12.63;;
38162;SDS011;23977;53.078;18.248;2023-08-06T13:03:39;15.45;;;12.27;;
38162;SDS011;23977;53.078;18.248;2023-08-06T13:06:04;14.07;;;11.73;;
38162;SDS011;23977;53.078;18.248;2023-08-06T13:08:31;15.38;;;12.10;;
38162;SDS011;23977;53.078;18.248;2023-08-06T13:10:56;14.85;;;12.45;;
38162;SDS011;23977;53.078;18.248;2023-08-06T13:13:22;15.80;;;13.50;;
38162;SDS011;23977;53.078;18.248;2023-08-06T13:15:47;15.48;;;12.93;;
38162;SDS011;23977;53.078;18.248;2023-08-06T13:18:13;14.93;;;12.75;;
38162;SDS011;23977;53.078;18.248;2023-08-06T13:20:39;15.02;;;13.40;;
38162;SDS011;23977;53.078;18.248;2023-08-06T13:23:07;18.40;;;13.18;;
38162;SDS011;23977;53.078;18.248;2023-08-06T13:25:36;17.98;;;13.05;;
38162;SDS011;23977;53.078;18.248;2023-08-06T13:28:59;15.05;;;13.45;;
38162;SDS011;23977;53.078;18.248;2023-08-06T13:31:26;16.38;;;13.48;;
38162;SDS011;23977;53.078;18.248;2023-08-06T13:33:53;16.48;;;14.77;;
38162;SDS011;23977;53.078;18.248;2023-08-06T13:36:21;21.17;;;15.23;;
38162;SDS011;23977;53.078;18.248;2023-08-06T13:38:48;18.50;;;15.90;;
38162;SDS011;23977;53.078;18.248;2023-08-06T13:41:14;19.10;;;14.00;;
38162;SDS011;23977;53.078;18.248;2023-08-06T13:43:39;19.05;;;15.75;;
38162;SDS011;23977;53.078;18.248;2023-08-06T13:46:05;19.75;;;16.00;;
38162;SDS011;23977;53.078;18.248;2023-08-06T13:48:31;19.55;;;16.23;;
38162;SDS011;23977;53.078;18.248;2023-08-06T13:50:57;21.48;;;16.85;;
38162;SDS011;23977;53.078;18.248;2023-08-06T13:53:22;18.38;;;16.58;;
38162;SDS011;23977;53.078;18.248;2023-08-06T13:55:48;20.63;;;17.10;;
38162;SDS011;23977;53.078;18.248;2023-08-06T13:58:13;23.48;;;17.85;;
38162;SDS011;23977;53.078;18.248;2023-08-06T14:00:39;20.15;;;16.38;;
38162;SDS011;23977;53.078;18.248;2023-08-06T14:03:05;21.25;;;17.98;;
38162;SDS011;23977;53.078;18.248;2023-08-06T14:05:31;20.80;;;17.73;;
38162;SDS011;23977;53.078;18.248;2023-08-06T14:07:57;20.45;;;17.58;;
38162;SDS011;23977;53.078;18.248;2023-08-06T14:10:23;20.27;;;18.08;;
38162;SDS011;23977;53.078;18.248;2023-08-06T14:12:49;24.95;;;18.45;;
38162;SDS011;23977;53.078;18.248;2023-08-06T14:15:15;23.25;;;19.10;;
38162;SDS011;23977;53.078;18.248;2023-08-06T14:17:41;23.95;;;20.30;;
38162;SDS011;23977;53.078;18.248;2023-08-06T14:20:07;23.92;;;19.48;;
38162;SDS011;23977;53.078;18.248;2023-08-06T14:22:37;22.45;;;20.05;;
38162;SDS011;23977;53.078;18.248;2023-08-06T14:25:03;23.25;;;20.75;;
38162;SDS011;23977;53.078;18.248;2023-08-06T14:27:29;22.88;;;20.25;;
38162;SDS011;23977;53.078;18.248;2023-08-06T14:29:54;26.92;;;21.55;;
38162;SDS011;23977;53.078;18.248;2023-08-06T14:32:20;25.40;;;20.83;;
38162;SDS011;23977;53.078;18.248;2023-08-06T14:34:46;22.63;;;20.25;;
38162;SDS011;23977;53.078;18.248;2023-08-06T14:37:12;23.30;;;19.75;;
38162;SDS011;23977;53.078;18.248;2023-08-06T14:39:38;21.15;;;16.88;;
38162;SDS011;23977;53.078;18.248;2023-08-06T14:42:04;16.67;;;14.30;;